sensor_id;sensor_type;location;lat;lon;timestamp;P1;durP1;ratioP1;P2;durP2;ratioP2
69126;SDS011;56688;50.234;19.292;2024-03-02T00:00:41;50.50;;;26.10;;
69126;SDS011;56688;50.234;19.292;2024-03-02T00:03:09;51.30;;;25.80;;
69126;SDS011;56688;50.234;19.292;2024-03-02T00:05:36;49.10;;;25.40;;
69126;SDS011;56688;50.234;19.292;2024-03-02T00:08:04;51.70;;;26.10;;
69126;SDS011;56688;50.234;19.292;2024-03-02T00:13:06;53.50;;;25.50;;
69126;SDS011;56688;50.234;19.292;2024-03-02T00:15:40;54.80;;;27.70;;
69126;SDS011;56688;50.234;19.292;2024-03-02T00:18:10;60.40;;;30.10;;
69126;SDS011;56688;50.234;19.292;2024-03-02T00:20:40;58.60;;;29.30;;
69126;SDS011;56688;50.234;19.292;2024-03-02T00:23:08;55.60;;;29.90;;
69126;SDS011;56688;50.234;19.292;2024-03-02T00:28:11;73.10;;;32.90;;
69126;SDS011;56688;50.234;19.292;2024-03-02T00:33:11;67.90;;;29.30;;
69126;SDS011;56688;50.234;19.292;2024-03-02T00:35:39;67.10;;;31.20;;
69126;SDS011;56688;50.234;19.292;2024-03-02T00:38:06;69.80;;;30.90;;
69126;SDS011;56688;50.234;19.292;2024-03-02T00:40:33;59.50;;;30.70;;
69126;SDS011;56688;50.234;19.292;2024-03-02T00:43:00;66.90;;;30.40;;
69126;SDS011;56688;50.234;19.292;2024-03-02T00:45:30;59.90;;;31.60;;
69126;SDS011;56688;50.234;19.292;2024-03-02T00:47:57;58.70;;;28.70;;
69126;SDS011;56688;50.234;19.292;2024-03-02T00:50:24;54.70;;;28.20;;
69126;SDS011;56688;50.234;19.292;2024-03-02T00:52:57;58.50;;;30.00;;
69126;SDS011;56688;50.234;19.292;2024-03-02T00:55:24;52.70;;;27.10;;
69126;SDS011;56688;50.234;19.292;2024-03-02T00:57:51;53.20;;;26.90;;
69126;SDS011;56688;50.234;19.292;2024-03-02T01:00:18;51.80;;;26.00;;
69126;SDS011;56688;50.234;19.292;2024-03-02T01:02:46;50.50;;;25.90;;
69126;SDS011;56688;50.234;19.292;2024-03-02T01:05:13;50.10;;;25.30;;
69126;SDS011;56688;50.234;19.292;2024-03-02T01:07:40;52.10;;;25.40;;
69126;SDS011;56688;50.234;19.292;2024-03-02T01:10:07;45.70;;;24.70;;
69126;SDS011;56688;50.234;19.292;2024-03-02T01:12:36;50.30;;;24.20;;
69126;SDS011;56688;50.234;19.292;2024-03-02T01:15:03;49.00;;;24.40;;
69126;SDS011;56688;50.234;19.292;2024-03-02T01:17:33;54.70;;;24.90;;
69126;SDS011;56688;50.234;19.292;2024-03-02T01:20:01;74.30;;;34.40;;
69126;SDS011;56688;50.234;19.292;2024-03-02T01:22:28;71.40;;;33.80;;
69126;SDS011;56688;50.234;19.292;2024-03-02T01:24:55;66.10;;;29.70;;
69126;SDS011;56688;50.234;19.292;2024-03-02T01:27:22;60.80;;;28.10;;
69126;SDS011;56688;50.234;19.292;2024-03-02T01:29:49;59.00;;;27.30;;
69126;SDS011;56688;50.234;19.292;2024-03-02T01:32:16;52.00;;;26.50;;
69126;SDS011;56688;50.234;19.292;2024-03-02T01:34:43;51.50;;;24.90;;
69126;SDS011;56688;50.234;19.292;2024-03-02T01:37:10;45.10;;;24.00;;
69126;SDS011;56688;50.234;19.292;2024-03-02T01:39:37;47.60;;;24.50;;
69126;SDS011;56688;50.234;19.292;2024-03-02T01:42:04;48.80;;;23.20;;
69126;SDS011;56688;50.234;19.292;2024-03-02T01:44:31;43.60;;;22.00;;
69126;SDS011;56688;50.234;19.292;2024-03-02T01:46:58;49.50;;;21.90;;
69126;SDS011;56688;50.234;19.292;2024-03-02T01:49:25;42.90;;;21.30;;
69126;SDS011;56688;50.234;19.292;2024-03-02T01:51:53;37.00;;;20.20;;
69126;SDS011;56688;50.234;19.292;2024-03-02T01:54:20;38.20;;;20.20;;
69126;SDS011;56688;50.234;19.292;2024-03-02T01:56:49;34.50;;;20.10;;
69126;SDS011;56688;50.234;19.292;2024-03-02T01:59:16;44.40;;;20.10;;
69126;SDS011;56688;50.234;19.292;2024-03-02T02:01:44;36.40;;;19.80;;
69126;SDS011;56688;50.234;19.292;2024-03-02T02:04:11;38.60;;;20.00;;
69126;SDS011;56688;50.234;19.292;2024-03-02T02:06:40;36.90;;;18.70;;
69126;SDS011;56688;50.234;19.292;2024-03-02T02:09:07;35.80;;;19.00;;
69126;SDS011;56688;50.234;19.292;2024-03-02T02:11:35;35.90;;;19.00;;
69126;SDS011;56688;50.234;19.292;2024-03-02T02:14:02;34.30;;;18.90;;
69126;SDS011;56688;50.234;19.292;2024-03-02T02:16:29;36.40;;;20.30;;
69126;SDS011;56688;50.234;19.292;2024-03-02T02:18:56;39.30;;;21.60;;
69126;SDS011;56688;50.234;19.292;2024-03-02T02:21:23;46.10;;;22.90;;
69126;SDS011;56688;50.234;19.292;2024-03-02T02:23:50;46.10;;;22.30;;
69126;SDS011;56688;50.234;19.292;2024-03-02T02:26:17;42.00;;;21.70;;
69126;SDS011;56688;50.234;19.292;2024-03-02T02:28:44;38.30;;;20.70;;
69126;SDS011;56688;50.234;19.292;2024-03-02T02:31:14;35.50;;;19.10;;
69126;SDS011;56688;50.234;19.292;2024-03-02T02:33:41;35.20;;;18.20;;
69126;SDS011;56688;50.234;19.292;2024-03-02T02:36:08;37.90;;;19.20;;
69126;SDS011;56688;50.234;19.292;2024-03-02T02:38:38;30.20;;;17.70;;
69126;SDS011;56688;50.234;19.292;2024-03-02T02:41:07;38.70;;;19.30;;
69126;SDS011;56688;50.234;19.292;2024-03-02T02:43:34;34.80;;;18.10;;
69126;SDS011;56688;50.234;19.292;2024-03-02T02:46:01;41.60;;;20.60;;
69126;SDS011;56688;50.234;19.292;2024-03-02T02:48:28;38.30;;;19.10;;
69126;SDS011;56688;50.234;19.292;2024-03-02T02:50:55;35.30;;;20.20;;
69126;SDS011;56688;50.234;19.292;2024-03-02T02:53:22;32.10;;;16.20;;
69126;SDS011;56688;50.234;19.292;2024-03-02T02:55:49;32.80;;;17.90;;
69126;SDS011;56688;50.234;19.292;2024-03-02T02:58:16;38.20;;;20.30;;
69126;SDS011;56688;50.234;19.292;2024-03-02T03:00:43;42.10;;;21.50;;
69126;SDS011;56688;50.234;19.292;2024-03-02T03:03:10;40.00;;;21.90;;
69126;SDS011;56688;50.234;19.292;2024-03-02T03:05:38;45.10;;;22.30;;
69126;SDS011;56688;50.234;19.292;2024-03-02T03:08:05;39.80;;;21.20;;
69126;SDS011;56688;50.234;19.292;2024-03-02T03:10:32;39.80;;;20.90;;
69126;SDS011;56688;50.234;19.292;2024-03-02T03:13:00;37.30;;;18.20;;
69126;SDS011;56688;50.234;19.292;2024-03-02T03:15:27;31.70;;;16.90;;
69126;SDS011;56688;50.234;19.292;2024-03-02T03:17:54;33.30;;;18.60;;
69126;SDS011;56688;50.234;19.292;2024-03-02T03:20:21;36.60;;;20.20;;
69126;SDS011;56688;50.234;19.292;2024-03-02T03:22:50;41.70;;;20.10;;
69126;SDS011;56688;50.234;19.292;2024-03-02T03:25:17;40.40;;;21.40;;
69126;SDS011;56688;50.234;19.292;2024-03-02T03:27:44;42.40;;;22.50;;
69126;SDS011;56688;50.234;19.292;2024-03-02T03:30:11;37.90;;;20.10;;
69126;SDS011;56688;50.234;19.292;2024-03-02T03:32:38;33.80;;;19.10;;
69126;SDS011;56688;50.234;19.292;2024-03-02T03:35:05;31.70;;;17.60;;
69126;SDS011;56688;50.234;19.292;2024-03-02T03:37:33;36.20;;;18.30;;
69126;SDS011;56688;50.234;19.292;2024-03-02T03:40:02;34.10;;;19.30;;
69126;SDS011;56688;50.234;19.292;2024-03-02T03:42:33;34.20;;;19.50;;
69126;SDS011;56688;50.234;19.292;2024-03-02T03:45:00;36.70;;;18.90;;
69126;SDS011;56688;50.234;19.292;2024-03-02T03:47:27;41.00;;;21.10;;
69126;SDS011;56688;50.234;19.292;2024-03-02T03:49:54;35.70;;;20.30;;
69126;SDS011;56688;50.234;19.292;2024-03-02T03:52:21;36.60;;;19.70;;
69126;SDS011;56688;50.234;19.292;2024-03-02T03:54:48;36.40;;;19.90;;
69126;SDS011;56688;50.234;19.292;2024-03-02T03:57:15;33.30;;;20.10;;
69126;SDS011;56688;50.234;19.292;2024-03-02T03:59:43;39.30;;;21.30;;
69126;SDS011;56688;50.234;19.292;2024-03-02T04:02:11;34.00;;;20.30;;
69126;SDS011;56688;50.234;19.292;2024-03-02T04:04:39;37.10;;;20.40;;
69126;SDS011;56688;50.234;19.292;2024-03-02T04:07:06;35.60;;;19.60;;
69126;SDS011;56688;50.234;19.292;2024-03-02T04:09:33;36.70;;;19.90;;
69126;SDS011;56688;50.234;19.292;2024-03-02T04:12:00;39.10;;;20.20;;
69126;SDS011;56688;50.234;19.292;2024-03-02T04:14:27;33.10;;;18.20;;
69126;SDS011;56688;50.234;19.292;2024-03-02T04:16:55;29.50;;;17.50;;
69126;SDS011;56688;50.234;19.292;2024-03-02T04:19:22;63.70;;;36.40;;
69126;SDS011;56688;50.234;19.292;2024-03-02T04:21:49;54.60;;;30.60;;
69126;SDS011;56688;50.234;19.292;2024-03-02T04:24:16;41.10;;;21.50;;
69126;SDS011;56688;50.234;19.292;2024-03-02T04:26:43;47.10;;;23.60;;
69126;SDS011;56688;50.234;19.292;2024-03-02T04:29:10;49.20;;;23.90;;
69126;SDS011;56688;50.234;19.292;2024-03-02T04:31:37;49.80;;;24.00;;
69126;SDS011;56688;50.234;19.292;2024-03-02T04:34:05;50.30;;;23.80;;
69126;SDS011;56688;50.234;19.292;2024-03-02T04:36:32;45.60;;;24.40;;
69126;SDS011;56688;50.234;19.292;2024-03-02T04:38:59;45.10;;;23.90;;
69126;SDS011;56688;50.234;19.292;2024-03-02T04:41:26;48.60;;;22.50;;
69126;SDS011;56688;50.234;19.292;2024-03-02T04:43:54;44.40;;;22.10;;
69126;SDS011;56688;50.234;19.292;2024-03-02T04:46:21;43.40;;;22.10;;
69126;SDS011;56688;50.234;19.292;2024-03-02T04:48:48;47.60;;;24.30;;
69126;SDS011;56688;50.234;19.292;2024-03-02T04:51:21;41.70;;;22.50;;
69126;SDS011;56688;50.234;19.292;2024-03-02T04:53:48;62.50;;;31.20;;
69126;SDS011;56688;50.234;19.292;2024-03-02T04:56:16;54.20;;;27.80;;
69126;SDS011;56688;50.234;19.292;2024-03-02T04:59:03;43.00;;;19.20;;
69126;SDS011;56688;50.234;19.292;2024-03-02T05:01:30;50.30;;;23.00;;
69126;SDS011;56688;50.234;19.292;2024-03-02T05:03:57;43.10;;;22.80;;
69126;SDS011;56688;50.234;19.292;2024-03-02T05:06:24;41.00;;;22.10;;
69126;SDS011;56688;50.234;19.292;2024-03-02T05:08:51;41.90;;;22.60;;
69126;SDS011;56688;50.234;19.292;2024-03-02T05:11:18;39.40;;;21.20;;
69126;SDS011;56688;50.234;19.292;2024-03-02T05:14:05;44.90;;;20.90;;
69126;SDS011;56688;50.234;19.292;2024-03-02T05:16:33;45.80;;;21.00;;
69126;SDS011;56688;50.234;19.292;2024-03-02T05:19:01;38.10;;;19.90;;
69126;SDS011;56688;50.234;19.292;2024-03-02T05:21:28;35.30;;;19.80;;
69126;SDS011;56688;50.234;19.292;2024-03-02T05:23:55;36.40;;;19.30;;
69126;SDS011;56688;50.234;19.292;2024-03-02T05:26:22;43.00;;;21.00;;
69126;SDS011;56688;50.234;19.292;2024-03-02T05:28:49;38.00;;;19.90;;
69126;SDS011;56688;50.234;19.292;2024-03-02T05:31:16;40.60;;;21.00;;
69126;SDS011;56688;50.234;19.292;2024-03-02T05:33:43;52.20;;;25.50;;
69126;SDS011;56688;50.234;19.292;2024-03-02T05:36:11;48.70;;;24.70;;
69126;SDS011;56688;50.234;19.292;2024-03-02T05:38:38;46.60;;;23.10;;
69126;SDS011;56688;50.234;19.292;2024-03-02T05:41:05;44.50;;;21.70;;
69126;SDS011;56688;50.234;19.292;2024-03-02T05:43:32;35.10;;;18.50;;
69126;SDS011;56688;50.234;19.292;2024-03-02T05:45:59;42.70;;;17.80;;
69126;SDS011;56688;50.234;19.292;2024-03-02T05:48:26;33.50;;;18.30;;
69126;SDS011;56688;50.234;19.292;2024-03-02T05:50:53;38.20;;;19.70;;
69126;SDS011;56688;50.234;19.292;2024-03-02T05:53:20;49.50;;;25.30;;
69126;SDS011;56688;50.234;19.292;2024-03-02T05:55:47;45.80;;;23.90;;
69126;SDS011;56688;50.234;19.292;2024-03-02T05:58:20;43.80;;;21.70;;
69126;SDS011;56688;50.234;19.292;2024-03-02T06:00:51;35.80;;;20.20;;
69126;SDS011;56688;50.234;19.292;2024-03-02T06:03:18;37.80;;;19.90;;
69126;SDS011;56688;50.234;19.292;2024-03-02T06:05:45;39.30;;;21.00;;
69126;SDS011;56688;50.234;19.292;2024-03-02T06:08:15;40.60;;;20.80;;
69126;SDS011;56688;50.234;19.292;2024-03-02T06:10:43;42.00;;;21.10;;
69126;SDS011;56688;50.234;19.292;2024-03-02T06:13:10;37.80;;;19.20;;
69126;SDS011;56688;50.234;19.292;2024-03-02T06:15:37;39.40;;;21.20;;
69126;SDS011;56688;50.234;19.292;2024-03-02T06:18:04;40.60;;;21.10;;
69126;SDS011;56688;50.234;19.292;2024-03-02T06:20:33;34.50;;;20.10;;
69126;SDS011;56688;50.234;19.292;2024-03-02T06:23:03;32.40;;;18.10;;
69126;SDS011;56688;50.234;19.292;2024-03-02T06:25:31;41.00;;;20.40;;
69126;SDS011;56688;50.234;19.292;2024-03-02T06:27:58;39.50;;;21.50;;
69126;SDS011;56688;50.234;19.292;2024-03-02T06:30:25;43.20;;;20.60;;
69126;SDS011;56688;50.234;19.292;2024-03-02T06:32:52;35.30;;;20.20;;
69126;SDS011;56688;50.234;19.292;2024-03-02T06:35:19;46.60;;;21.90;;
69126;SDS011;56688;50.234;19.292;2024-03-02T06:37:46;35.00;;;19.80;;
69126;SDS011;56688;50.234;19.292;2024-03-02T06:40:13;41.80;;;23.30;;
69126;SDS011;56688;50.234;19.292;2024-03-02T06:42:40;43.60;;;25.00;;
69126;SDS011;56688;50.234;19.292;2024-03-02T06:45:07;51.10;;;27.70;;
69126;SDS011;56688;50.234;19.292;2024-03-02T06:47:34;49.00;;;27.50;;
69126;SDS011;56688;50.234;19.292;2024-03-02T06:50:02;48.90;;;27.50;;
69126;SDS011;56688;50.234;19.292;2024-03-02T06:52:30;41.00;;;24.60;;
69126;SDS011;56688;50.234;19.292;2024-03-02T06:54:57;51.30;;;26.60;;
69126;SDS011;56688;50.234;19.292;2024-03-02T06:57:24;48.90;;;29.10;;
69126;SDS011;56688;50.234;19.292;2024-03-02T06:59:51;46.00;;;27.10;;
69126;SDS011;56688;50.234;19.292;2024-03-02T07:02:21;43.20;;;25.60;;
69126;SDS011;56688;50.234;19.292;2024-03-02T07:04:49;41.70;;;25.50;;
69126;SDS011;56688;50.234;19.292;2024-03-02T07:07:17;47.50;;;26.40;;
69126;SDS011;56688;50.234;19.292;2024-03-02T07:09:45;41.20;;;24.70;;
69126;SDS011;56688;50.234;19.292;2024-03-02T07:12:12;41.20;;;24.60;;
69126;SDS011;56688;50.234;19.292;2024-03-02T07:14:39;39.50;;;23.30;;
69126;SDS011;56688;50.234;19.292;2024-03-02T07:17:25;40.10;;;22.40;;
69126;SDS011;56688;50.234;19.292;2024-03-02T07:19:52;39.70;;;20.30;;
69126;SDS011;56688;50.234;19.292;2024-03-02T07:22:20;36.20;;;20.30;;
69126;SDS011;56688;50.234;19.292;2024-03-02T07:24:47;37.30;;;20.30;;
69126;SDS011;56688;50.234;19.292;2024-03-02T07:27:16;34.30;;;17.70;;
69126;SDS011;56688;50.234;19.292;2024-03-02T07:29:43;39.20;;;19.30;;
69126;SDS011;56688;50.234;19.292;2024-03-02T07:32:11;43.80;;;20.00;;
69126;SDS011;56688;50.234;19.292;2024-03-02T07:34:38;33.50;;;17.30;;
69126;SDS011;56688;50.234;19.292;2024-03-02T07:37:05;30.20;;;16.70;;
69126;SDS011;56688;50.234;19.292;2024-03-02T07:39:33;33.10;;;17.20;;
69126;SDS011;56688;50.234;19.292;2024-03-02T07:42:00;35.00;;;16.90;;
69126;SDS011;56688;50.234;19.292;2024-03-02T07:44:27;39.50;;;17.30;;
69126;SDS011;56688;50.234;19.292;2024-03-02T07:46:55;42.60;;;18.40;;
69126;SDS011;56688;50.234;19.292;2024-03-02T07:49:22;34.20;;;16.60;;
69126;SDS011;56688;50.234;19.292;2024-03-02T07:51:50;37.40;;;19.10;;
69126;SDS011;56688;50.234;19.292;2024-03-02T07:54:17;40.20;;;20.40;;
69126;SDS011;56688;50.234;19.292;2024-03-02T07:56:44;41.30;;;20.20;;
69126;SDS011;56688;50.234;19.292;2024-03-02T07:59:12;37.80;;;19.70;;
69126;SDS011;56688;50.234;19.292;2024-03-02T08:01:39;41.20;;;19.50;;
69126;SDS011;56688;50.234;19.292;2024-03-02T08:04:06;39.30;;;19.50;;
69126;SDS011;56688;50.234;19.292;2024-03-02T08:06:33;37.60;;;19.00;;
69126;SDS011;56688;50.234;19.292;2024-03-02T08:09:01;40.00;;;19.20;;
69126;SDS011;56688;50.234;19.292;2024-03-02T08:11:28;32.30;;;17.40;;
69126;SDS011;56688;50.234;19.292;2024-03-02T08:13:56;37.20;;;19.20;;
69126;SDS011;56688;50.234;19.292;2024-03-02T08:16:24;37.20;;;19.00;;
69126;SDS011;56688;50.234;19.292;2024-03-02T08:18:52;35.20;;;18.40;;
69126;SDS011;56688;50.234;19.292;2024-03-02T08:21:20;34.10;;;17.20;;
69126;SDS011;56688;50.234;19.292;2024-03-02T08:23:47;30.80;;;16.70;;
69126;SDS011;56688;50.234;19.292;2024-03-02T08:26:14;29.80;;;16.50;;
69126;SDS011;56688;50.234;19.292;2024-03-02T08:28:42;34.70;;;16.30;;
69126;SDS011;56688;50.234;19.292;2024-03-02T08:31:09;32.40;;;17.10;;
69126;SDS011;56688;50.234;19.292;2024-03-02T08:33:36;28.50;;;16.30;;
69126;SDS011;56688;50.234;19.292;2024-03-02T08:36:04;34.70;;;18.20;;
69126;SDS011;56688;50.234;19.292;2024-03-02T08:38:32;33.90;;;17.80;;
69126;SDS011;56688;50.234;19.292;2024-03-02T08:40:59;30.80;;;17.70;;
69126;SDS011;56688;50.234;19.292;2024-03-02T08:43:26;34.10;;;17.90;;
69126;SDS011;56688;50.234;19.292;2024-03-02T08:45:53;35.10;;;18.20;;
69126;SDS011;56688;50.234;19.292;2024-03-02T08:48:21;35.60;;;18.40;;
69126;SDS011;56688;50.234;19.292;2024-03-02T08:50:48;42.20;;;19.70;;
69126;SDS011;56688;50.234;19.292;2024-03-02T08:53:15;46.80;;;22.80;;
69126;SDS011;56688;50.234;19.292;2024-03-02T08:55:45;47.30;;;23.60;;
69126;SDS011;56688;50.234;19.292;2024-03-02T08:58:13;44.00;;;23.20;;
69126;SDS011;56688;50.234;19.292;2024-03-02T09:00:40;46.80;;;23.30;;
69126;SDS011;56688;50.234;19.292;2024-03-02T09:03:08;50.40;;;21.60;;
69126;SDS011;56688;50.234;19.292;2024-03-02T09:05:35;47.60;;;21.70;;
69126;SDS011;56688;50.234;19.292;2024-03-02T09:08:02;43.70;;;20.80;;
69126;SDS011;56688;50.234;19.292;2024-03-02T09:10:30;45.50;;;20.40;;
69126;SDS011;56688;50.234;19.292;2024-03-02T09:12:57;42.60;;;18.80;;
69126;SDS011;56688;50.234;19.292;2024-03-02T09:15:25;42.60;;;18.90;;
69126;SDS011;56688;50.234;19.292;2024-03-02T09:17:52;46.40;;;20.00;;
69126;SDS011;56688;50.234;19.292;2024-03-02T09:20:19;46.50;;;19.00;;
69126;SDS011;56688;50.234;19.292;2024-03-02T09:22:46;42.70;;;19.30;;
69126;SDS011;56688;50.234;19.292;2024-03-02T09:25:15;42.00;;;20.10;;
69126;SDS011;56688;50.234;19.292;2024-03-02T09:27:43;47.10;;;20.50;;
69126;SDS011;56688;50.234;19.292;2024-03-02T09:30:10;40.50;;;20.70;;
69126;SDS011;56688;50.234;19.292;2024-03-02T09:32:37;36.60;;;19.60;;
69126;SDS011;56688;50.234;19.292;2024-03-02T09:35:05;40.00;;;20.20;;
69126;SDS011;56688;50.234;19.292;2024-03-02T09:37:32;38.20;;;19.60;;
69126;SDS011;56688;50.234;19.292;2024-03-02T09:39:59;35.80;;;19.30;;
69126;SDS011;56688;50.234;19.292;2024-03-02T09:42:27;36.70;;;20.60;;
69126;SDS011;56688;50.234;19.292;2024-03-02T09:44:54;43.90;;;22.60;;
69126;SDS011;56688;50.234;19.292;2024-03-02T09:47:22;42.40;;;22.60;;
69126;SDS011;56688;50.234;19.292;2024-03-02T09:49:49;37.60;;;21.70;;
69126;SDS011;56688;50.234;19.292;2024-03-02T09:52:17;43.80;;;22.10;;
69126;SDS011;56688;50.234;19.292;2024-03-02T09:54:44;39.90;;;20.50;;
69126;SDS011;56688;50.234;19.292;2024-03-02T09:57:11;39.50;;;22.00;;
69126;SDS011;56688;50.234;19.292;2024-03-02T09:59:38;44.90;;;25.70;;
69126;SDS011;56688;50.234;19.292;2024-03-02T10:02:05;38.90;;;21.90;;
69126;SDS011;56688;50.234;19.292;2024-03-02T10:04:34;41.90;;;21.60;;
69126;SDS011;56688;50.234;19.292;2024-03-02T10:07:14;41.00;;;20.30;;
69126;SDS011;56688;50.234;19.292;2024-03-02T10:09:45;35.40;;;18.90;;
69126;SDS011;56688;50.234;19.292;2024-03-02T10:12:16;36.90;;;20.00;;
69126;SDS011;56688;50.234;19.292;2024-03-02T10:14:44;35.50;;;21.30;;
69126;SDS011;56688;50.234;19.292;2024-03-02T10:17:12;38.50;;;21.10;;
69126;SDS011;56688;50.234;19.292;2024-03-02T10:19:40;37.70;;;21.50;;
69126;SDS011;56688;50.234;19.292;2024-03-02T10:22:08;35.60;;;20.60;;
69126;SDS011;56688;50.234;19.292;2024-03-02T10:24:37;35.20;;;21.00;;
69126;SDS011;56688;50.234;19.292;2024-03-02T10:27:06;35.10;;;19.10;;
69126;SDS011;56688;50.234;19.292;2024-03-02T10:29:36;47.90;;;21.80;;
69126;SDS011;56688;50.234;19.292;2024-03-02T10:32:04;31.10;;;17.50;;
69126;SDS011;56688;50.234;19.292;2024-03-02T10:34:33;34.60;;;17.20;;
69126;SDS011;56688;50.234;19.292;2024-03-02T10:37:02;28.00;;;15.40;;
69126;SDS011;56688;50.234;19.292;2024-03-02T10:39:32;24.60;;;14.90;;
69126;SDS011;56688;50.234;19.292;2024-03-02T10:42:02;23.30;;;15.10;;
69126;SDS011;56688;50.234;19.292;2024-03-02T10:44:30;24.70;;;14.10;;
69126;SDS011;56688;50.234;19.292;2024-03-02T10:47:00;24.50;;;14.60;;
69126;SDS011;56688;50.234;19.292;2024-03-02T10:49:31;22.60;;;14.00;;
69126;SDS011;56688;50.234;19.292;2024-03-02T10:51:59;27.00;;;15.00;;
69126;SDS011;56688;50.234;19.292;2024-03-02T10:54:27;30.70;;;16.50;;
69126;SDS011;56688;50.234;19.292;2024-03-02T10:56:58;32.50;;;17.20;;
69126;SDS011;56688;50.234;19.292;2024-03-02T10:59:31;27.10;;;16.40;;
69126;SDS011;56688;50.234;19.292;2024-03-02T11:02:00;26.00;;;15.50;;
69126;SDS011;56688;50.234;19.292;2024-03-02T11:04:32;24.30;;;15.20;;
69126;SDS011;56688;50.234;19.292;2024-03-02T11:07:02;28.80;;;15.20;;
69126;SDS011;56688;50.234;19.292;2024-03-02T11:09:33;28.20;;;16.90;;
69126;SDS011;56688;50.234;19.292;2024-03-02T11:12:03;31.40;;;18.20;;
69126;SDS011;56688;50.234;19.292;2024-03-02T11:14:40;29.80;;;16.10;;
69126;SDS011;56688;50.234;19.292;2024-03-02T11:17:10;30.30;;;18.10;;
69126;SDS011;56688;50.234;19.292;2024-03-02T11:19:40;31.80;;;17.80;;
69126;SDS011;56688;50.234;19.292;2024-03-02T11:22:08;35.60;;;18.10;;
69126;SDS011;56688;50.234;19.292;2024-03-02T11:24:36;32.20;;;17.00;;
69126;SDS011;56688;50.234;19.292;2024-03-02T11:27:05;29.40;;;17.50;;
69126;SDS011;56688;50.234;19.292;2024-03-02T11:32:02;28.50;;;17.20;;
69126;SDS011;56688;50.234;19.292;2024-03-02T11:34:31;32.10;;;18.00;;
69126;SDS011;56688;50.234;19.292;2024-03-02T11:37:02;28.90;;;17.70;;
69126;SDS011;56688;50.234;19.292;2024-03-02T11:39:29;34.30;;;17.30;;
69126;SDS011;56688;50.234;19.292;2024-03-02T11:41:57;25.00;;;15.20;;
69126;SDS011;56688;50.234;19.292;2024-03-02T11:44:26;33.20;;;16.90;;
69126;SDS011;56688;50.234;19.292;2024-03-02T11:47:00;26.60;;;15.30;;
69126;SDS011;56688;50.234;19.292;2024-03-02T11:52:18;26.80;;;16.20;;
69126;SDS011;56688;50.234;19.292;2024-03-02T11:54:45;25.60;;;16.00;;
69126;SDS011;56688;50.234;19.292;2024-03-02T11:57:15;31.70;;;16.40;;
69126;SDS011;56688;50.234;19.292;2024-03-02T11:59:43;27.20;;;16.10;;
69126;SDS011;56688;50.234;19.292;2024-03-02T12:02:14;24.20;;;14.30;;
69126;SDS011;56688;50.234;19.292;2024-03-02T12:04:45;24.00;;;13.60;;
69126;SDS011;56688;50.234;19.292;2024-03-02T12:07:19;24.40;;;15.40;;
69126;SDS011;56688;50.234;19.292;2024-03-02T12:09:48;25.90;;;16.00;;
69126;SDS011;56688;50.234;19.292;2024-03-02T12:12:16;24.90;;;15.40;;
69126;SDS011;56688;50.234;19.292;2024-03-02T12:14:50;26.70;;;16.70;;
69126;SDS011;56688;50.234;19.292;2024-03-02T12:17:19;24.00;;;14.00;;
69126;SDS011;56688;50.234;19.292;2024-03-02T12:19:46;25.80;;;15.30;;
69126;SDS011;56688;50.234;19.292;2024-03-02T12:22:13;27.00;;;15.60;;
69126;SDS011;56688;50.234;19.292;2024-03-02T12:24:44;25.60;;;14.80;;
69126;SDS011;56688;50.234;19.292;2024-03-02T12:27:13;26.70;;;16.00;;
69126;SDS011;56688;50.234;19.292;2024-03-02T12:29:41;30.40;;;16.50;;
69126;SDS011;56688;50.234;19.292;2024-03-02T12:32:09;27.00;;;16.40;;
69126;SDS011;56688;50.234;19.292;2024-03-02T12:34:37;25.90;;;14.80;;
69126;SDS011;56688;50.234;19.292;2024-03-02T12:37:06;20.20;;;11.60;;
69126;SDS011;56688;50.234;19.292;2024-03-02T12:39:33;19.00;;;12.20;;
69126;SDS011;56688;50.234;19.292;2024-03-02T12:42:02;20.80;;;12.50;;
69126;SDS011;56688;50.234;19.292;2024-03-02T12:44:29;20.50;;;12.50;;
69126;SDS011;56688;50.234;19.292;2024-03-02T12:46:56;19.30;;;13.60;;
69126;SDS011;56688;50.234;19.292;2024-03-02T12:49:27;15.60;;;10.00;;
69126;SDS011;56688;50.234;19.292;2024-03-02T12:51:55;19.90;;;11.90;;
69126;SDS011;56688;50.234;19.292;2024-03-02T12:54:24;17.20;;;10.60;;
69126;SDS011;56688;50.234;19.292;2024-03-02T12:56:53;16.90;;;11.00;;
69126;SDS011;56688;50.234;19.292;2024-03-02T12:59:21;20.60;;;12.20;;
69126;SDS011;56688;50.234;19.292;2024-03-02T13:01:53;19.30;;;10.70;;
69126;SDS011;56688;50.234;19.292;2024-03-02T13:04:22;21.40;;;12.20;;
69126;SDS011;56688;50.234;19.292;2024-03-02T13:06:51;19.90;;;11.20;;
69126;SDS011;56688;50.234;19.292;2024-03-02T13:09:20;19.60;;;10.70;;
69126;SDS011;56688;50.234;19.292;2024-03-02T13:11:47;17.30;;;10.10;;
69126;SDS011;56688;50.234;19.292;2024-03-02T13:14:15;20.30;;;12.20;;
69126;SDS011;56688;50.234;19.292;2024-03-02T13:16:42;20.80;;;12.60;;
69126;SDS011;56688;50.234;19.292;2024-03-02T13:19:13;19.80;;;13.00;;
69126;SDS011;56688;50.234;19.292;2024-03-02T13:21:41;20.30;;;13.10;;
69126;SDS011;56688;50.234;19.292;2024-03-02T13:24:09;24.40;;;13.30;;
69126;SDS011;56688;50.234;19.292;2024-03-02T13:26:36;22.10;;;12.60;;
69126;SDS011;56688;50.234;19.292;2024-03-02T13:29:03;19.10;;;13.00;;
69126;SDS011;56688;50.234;19.292;2024-03-02T13:31:30;18.20;;;11.60;;
69126;SDS011;56688;50.234;19.292;2024-03-02T13:33:57;20.40;;;12.00;;
69126;SDS011;56688;50.234;19.292;2024-03-02T13:36:24;21.60;;;13.30;;
69126;SDS011;56688;50.234;19.292;2024-03-02T13:38:51;21.30;;;13.60;;
69126;SDS011;56688;50.234;19.292;2024-03-02T13:41:19;24.70;;;14.80;;
69126;SDS011;56688;50.234;19.292;2024-03-02T13:43:47;52.50;;;29.60;;
69126;SDS011;56688;50.234;19.292;2024-03-02T13:46:16;54.10;;;31.60;;
69126;SDS011;56688;50.234;19.292;2024-03-02T13:48:43;25.80;;;17.40;;
69126;SDS011;56688;50.234;19.292;2024-03-02T13:51:10;27.40;;;14.70;;
69126;SDS011;56688;50.234;19.292;2024-03-02T13:53:38;27.20;;;15.40;;
69126;SDS011;56688;50.234;19.292;2024-03-02T13:56:05;31.60;;;17.50;;
69126;SDS011;56688;50.234;19.292;2024-03-02T13:58:32;24.00;;;14.10;;
69126;SDS011;56688;50.234;19.292;2024-03-02T14:00:59;26.30;;;15.20;;
69126;SDS011;56688;50.234;19.292;2024-03-02T14:03:28;25.40;;;15.40;;
69126;SDS011;56688;50.234;19.292;2024-03-02T14:05:57;26.80;;;16.30;;
69126;SDS011;56688;50.234;19.292;2024-03-02T14:08:24;23.80;;;15.30;;
69126;SDS011;56688;50.234;19.292;2024-03-02T14:10:51;24.20;;;14.10;;
69126;SDS011;56688;50.234;19.292;2024-03-02T14:13:19;23.80;;;14.10;;
69126;SDS011;56688;50.234;19.292;2024-03-02T14:15:46;22.00;;;14.10;;
69126;SDS011;56688;50.234;19.292;2024-03-02T14:18:13;24.80;;;14.60;;
69126;SDS011;56688;50.234;19.292;2024-03-02T14:20:40;69.40;;;40.10;;
69126;SDS011;56688;50.234;19.292;2024-03-02T14:23:11;25.70;;;15.70;;
69126;SDS011;56688;50.234;19.292;2024-03-02T14:25:38;29.50;;;18.00;;